sensor_id;sensor_type;location;lat;lon;timestamp;P1;durP1;ratioP1;P2;durP2;ratioP2
14326;SDS011;7247;53.330;-1.180;2023-02-15T00:00:14;115.00;;;64.83;;
14326;SDS011;7247;53.330;-1.180;2023-02-15T00:02:40;104.93;;;61.63;;
14326;SDS011;7247;53.330;-1.180;2023-02-15T00:05:07;125.63;;;66.43;;
14326;SDS011;7247;53.330;-1.180;2023-02-15T00:07:33;124.03;;;68.73;;
14326;SDS011;7247;53.330;-1.180;2023-02-15T00:09:59;113.80;;;64.50;;
14326;SDS011;7247;53.330;-1.180;2023-02-15T00:12:26;269.63;;;73.77;;
14326;SDS011;7247;53.330;-1.180;2023-02-15T00:14:52;125.53;;;64.07;;
14326;SDS011;7247;53.330;-1.180;2023-02-15T00:17:20;161.27;;;73.43;;
14326;SDS011;7247;53.330;-1.180;2023-02-15T00:19:46;142.33;;;75.80;;
14326;SDS011;7247;53.330;-1.180;2023-02-15T00:22:13;149.53;;;74.93;;
14326;SDS011;7247;53.330;-1.180;2023-02-15T00:24:39;158.80;;;80.70;;
14326;SDS011;7247;53.330;-1.180;2023-02-15T00:27:06;183.27;;;79.10;;
14326;SDS011;7247;53.330;-1.180;2023-02-15T00:29:34;160.73;;;79.13;;
14326;SDS011;7247;53.330;-1.180;2023-02-15T00:32:00;207.90;;;83.27;;
14326;SDS011;7247;53.330;-1.180;2023-02-15T00:34:28;357.50;;;90.27;;
14326;SDS011;7247;53.330;-1.180;2023-02-15T00:36:54;195.50;;;83.40;;
14326;SDS011;7247;53.330;-1.180;2023-02-15T00:39:21;243.27;;;87.00;;
14326;SDS011;7247;53.330;-1.180;2023-02-15T00:41:48;225.40;;;85.10;;
14326;SDS011;7247;53.330;-1.180;2023-02-15T00:44:15;206.40;;;85.77;;
14326;SDS011;7247;53.330;-1.180;2023-02-15T00:46:41;206.20;;;86.17;;
14326;SDS011;7247;53.330;-1.180;2023-02-15T00:49:08;205.33;;;85.17;;
14326;SDS011;7247;53.330;-1.180;2023-02-15T00:51:36;185.43;;;84.87;;
14326;SDS011;7247;53.330;-1.180;2023-02-15T00:54:02;170.73;;;73.30;;
14326;SDS011;7247;53.330;-1.180;2023-02-15T00:56:29;179.07;;;76.93;;
14326;SDS011;7247;53.330;-1.180;2023-02-15T00:58:55;159.80;;;74.17;;
14326;SDS011;7247;53.330;-1.180;2023-02-15T01:01:22;203.47;;;70.40;;
14326;SDS011;7247;53.330;-1.180;2023-02-15T01:03:48;123.63;;;60.47;;
14326;SDS011;7247;53.330;-1.180;2023-02-15T01:06:15;123.53;;;61.07;;
14326;SDS011;7247;53.330;-1.180;2023-02-15T01:08:43;122.17;;;59.63;;
14326;SDS011;7247;53.330;-1.180;2023-02-15T01:11:11;121.17;;;60.73;;
14326;SDS011;7247;53.330;-1.180;2023-02-15T01:13:38;116.03;;;59.07;;
14326;SDS011;7247;53.330;-1.180;2023-02-15T01:16:04;122.13;;;57.73;;
14326;SDS011;7247;53.330;-1.180;2023-02-15T01:18:31;128.13;;;60.17;;
14326;SDS011;7247;53.330;-1.180;2023-02-15T01:20:57;114.93;;;56.30;;
14326;SDS011;7247;53.330;-1.180;2023-02-15T01:23:24;121.80;;;57.60;;
14326;SDS011;7247;53.330;-1.180;2023-02-15T01:25:52;129.77;;;58.67;;
14326;SDS011;7247;53.330;-1.180;2023-02-15T01:28:18;122.47;;;57.20;;
14326;SDS011;7247;53.330;-1.180;2023-02-15T01:30:44;109.87;;;53.47;;
14326;SDS011;7247;53.330;-1.180;2023-02-15T01:33:11;108.40;;;55.77;;
14326;SDS011;7247;53.330;-1.180;2023-02-15T01:35:42;120.70;;;57.43;;
14326;SDS011;7247;53.330;-1.180;2023-02-15T01:38:09;107.10;;;54.23;;
14326;SDS011;7247;53.330;-1.180;2023-02-15T01:40:35;121.17;;;55.70;;
14326;SDS011;7247;53.330;-1.180;2023-02-15T01:43:03;108.27;;;55.07;;
14326;SDS011;7247;53.330;-1.180;2023-02-15T01:45:34;122.20;;;56.80;;
14326;SDS011;7247;53.330;-1.180;2023-02-15T01:48:02;120.57;;;56.17;;
14326;SDS011;7247;53.330;-1.180;2023-02-15T01:50:30;122.07;;;56.50;;
14326;SDS011;7247;53.330;-1.180;2023-02-15T01:52:58;118.00;;;56.70;;
14326;SDS011;7247;53.330;-1.180;2023-02-15T01:55:28;122.83;;;59.23;;
14326;SDS011;7247;53.330;-1.180;2023-02-15T01:57:56;123.70;;;58.73;;
14326;SDS011;7247;53.330;-1.180;2023-02-15T02:00:24;130.30;;;58.77;;
14326;SDS011;7247;53.330;-1.180;2023-02-15T02:02:51;132.53;;;60.10;;
14326;SDS011;7247;53.330;-1.180;2023-02-15T02:05:19;348.47;;;74.43;;
14326;SDS011;7247;53.330;-1.180;2023-02-15T02:07:45;136.23;;;60.73;;
14326;SDS011;7247;53.330;-1.180;2023-02-15T02:10:13;153.63;;;61.43;;
14326;SDS011;7247;53.330;-1.180;2023-02-15T02:12:40;169.57;;;66.50;;
14326;SDS011;7247;53.330;-1.180;2023-02-15T02:15:08;177.33;;;67.13;;
14326;SDS011;7247;53.330;-1.180;2023-02-15T02:17:38;167.07;;;66.87;;
14326;SDS011;7247;53.330;-1.180;2023-02-15T02:25:44;138.73;;;57.53;;
14326;SDS011;7247;53.330;-1.180;2023-02-15T02:28:24;129.93;;;56.83;;
14326;SDS011;7247;53.330;-1.180;2023-02-15T02:31:01;141.87;;;57.30;;
14326;SDS011;7247;53.330;-1.180;2023-02-15T02:33:48;132.53;;;57.10;;
14326;SDS011;7247;53.330;-1.180;2023-02-15T02:36:21;130.83;;;57.47;;
14326;SDS011;7247;53.330;-1.180;2023-02-15T02:38:52;143.00;;;61.43;;
14326;SDS011;7247;53.330;-1.180;2023-02-15T02:41:24;156.10;;;61.37;;
14326;SDS011;7247;53.330;-1.180;2023-02-15T02:43:54;151.60;;;61.90;;
14326;SDS011;7247;53.330;-1.180;2023-02-15T02:46:28;148.87;;;62.03;;
14326;SDS011;7247;53.330;-1.180;2023-02-15T02:48:57;140.70;;;59.67;;
14326;SDS011;7247;53.330;-1.180;2023-02-15T02:51:24;139.20;;;57.47;;
14326;SDS011;7247;53.330;-1.180;2023-02-15T02:53:51;143.17;;;58.53;;
14326;SDS011;7247;53.330;-1.180;2023-02-15T02:56:20;137.40;;;57.67;;
14326;SDS011;7247;53.330;-1.180;2023-02-15T02:58:48;139.67;;;58.63;;
14326;SDS011;7247;53.330;-1.180;2023-02-15T03:01:17;144.57;;;60.30;;
14326;SDS011;7247;53.330;-1.180;2023-02-15T03:03:46;139.27;;;60.67;;
14326;SDS011;7247;53.330;-1.180;2023-02-15T03:06:15;162.23;;;63.07;;
14326;SDS011;7247;53.330;-1.180;2023-02-15T03:08:45;161.90;;;63.40;;
14326;SDS011;7247;53.330;-1.180;2023-02-15T03:11:13;169.13;;;68.03;;
14326;SDS011;7247;53.330;-1.180;2023-02-15T03:13:40;182.60;;;69.17;;
14326;SDS011;7247;53.330;-1.180;2023-02-15T03:16:06;170.80;;;68.77;;
14326;SDS011;7247;53.330;-1.180;2023-02-15T03:18:54;174.63;;;67.23;;
14326;SDS011;7247;53.330;-1.180;2023-02-15T03:21:25;258.97;;;77.07;;
14326;SDS011;7247;53.330;-1.180;2023-02-15T03:23:54;191.73;;;68.03;;
14326;SDS011;7247;53.330;-1.180;2023-02-15T03:26:23;177.27;;;68.50;;
14326;SDS011;7247;53.330;-1.180;2023-02-15T03:28:50;182.73;;;69.73;;
14326;SDS011;7247;53.330;-1.180;2023-02-15T03:31:19;238.17;;;77.70;;
14326;SDS011;7247;53.330;-1.180;2023-02-15T03:33:48;263.93;;;81.43;;
14326;SDS011;7247;53.330;-1.180;2023-02-15T03:36:17;226.73;;;78.73;;
14326;SDS011;7247;53.330;-1.180;2023-02-15T03:38:47;266.67;;;81.87;;
14326;SDS011;7247;53.330;-1.180;2023-02-15T03:41:15;242.27;;;82.73;;
14326;SDS011;7247;53.330;-1.180;2023-02-15T03:43:44;244.80;;;82.13;;
14326;SDS011;7247;53.330;-1.180;2023-02-15T03:46:14;248.37;;;83.37;;
14326;SDS011;7247;53.330;-1.180;2023-02-15T03:48:43;384.83;;;93.97;;
14326;SDS011;7247;53.330;-1.180;2023-02-15T03:51:12;206.10;;;76.50;;
14326;SDS011;7247;53.330;-1.180;2023-02-15T03:53:59;219.23;;;74.77;;
14326;SDS011;7247;53.330;-1.180;2023-02-15T03:56:27;201.70;;;71.90;;
14326;SDS011;7247;53.330;-1.180;2023-02-15T03:58:53;247.30;;;79.50;;
14326;SDS011;7247;53.330;-1.180;2023-02-15T04:01:38;240.13;;;79.67;;
14326;SDS011;7247;53.330;-1.180;2023-02-15T04:04:24;229.57;;;80.63;;
14326;SDS011;7247;53.330;-1.180;2023-02-15T04:06:51;252.20;;;86.10;;
14326;SDS011;7247;53.330;-1.180;2023-02-15T04:09:19;270.83;;;87.80;;
14326;SDS011;7247;53.330;-1.180;2023-02-15T04:12:03;253.70;;;88.30;;
14326;SDS011;7247;53.330;-1.180;2023-02-15T04:14:29;273.73;;;89.63;;
14326;SDS011;7247;53.330;-1.180;2023-02-15T04:17:13;252.13;;;85.17;;
14326;SDS011;7247;53.330;-1.180;2023-02-15T04:19:39;254.93;;;83.63;;
14326;SDS011;7247;53.330;-1.180;2023-02-15T04:22:23;242.67;;;82.90;;
14326;SDS011;7247;53.330;-1.180;2023-02-15T04:25:09;228.23;;;82.17;;
14326;SDS011;7247;53.330;-1.180;2023-02-15T04:27:35;263.50;;;86.77;;
14326;SDS011;7247;53.330;-1.180;2023-02-15T04:30:02;224.87;;;81.87;;
14326;SDS011;7247;53.330;-1.180;2023-02-15T04:32:28;202.70;;;78.97;;
14326;SDS011;7247;53.330;-1.180;2023-02-15T04:34:54;216.40;;;83.07;;
14326;SDS011;7247;53.330;-1.180;2023-02-15T04:37:21;237.57;;;83.27;;
14326;SDS011;7247;53.330;-1.180;2023-02-15T04:39:47;210.80;;;80.87;;
14326;SDS011;7247;53.330;-1.180;2023-02-15T04:42:16;238.83;;;81.43;;
14326;SDS011;7247;53.330;-1.180;2023-02-15T04:44:42;294.83;;;87.30;;
14326;SDS011;7247;53.330;-1.180;2023-02-15T04:47:09;247.07;;;84.73;;
14326;SDS011;7247;53.330;-1.180;2023-02-15T04:49:35;228.43;;;82.83;;
14326;SDS011;7247;53.330;-1.180;2023-02-15T04:52:02;225.97;;;82.67;;
14326;SDS011;7247;53.330;-1.180;2023-02-15T04:54:28;223.30;;;83.20;;
14326;SDS011;7247;53.330;-1.180;2023-02-15T04:56:55;253.17;;;84.87;;
14326;SDS011;7247;53.330;-1.180;2023-02-15T04:59:22;256.73;;;85.57;;
14326;SDS011;7247;53.330;-1.180;2023-02-15T05:01:49;233.67;;;85.77;;
14326;SDS011;7247;53.330;-1.180;2023-02-15T05:04:15;272.63;;;85.23;;
14326;SDS011;7247;53.330;-1.180;2023-02-15T05:06:42;249.57;;;84.70;;
14326;SDS011;7247;53.330;-1.180;2023-02-15T05:09:08;243.10;;;86.20;;
14326;SDS011;7247;53.330;-1.180;2023-02-15T05:11:34;213.43;;;82.87;;
14326;SDS011;7247;53.330;-1.180;2023-02-15T05:14:01;222.53;;;84.17;;
14326;SDS011;7247;53.330;-1.180;2023-02-15T05:16:28;224.80;;;81.90;;
14326;SDS011;7247;53.330;-1.180;2023-02-15T05:18:55;229.93;;;84.67;;
14326;SDS011;7247;53.330;-1.180;2023-02-15T05:21:21;219.03;;;82.90;;
14326;SDS011;7247;53.330;-1.180;2023-02-15T05:23:48;229.50;;;82.60;;
14326;SDS011;7247;53.330;-1.180;2023-02-15T05:26:16;201.30;;;82.30;;
14326;SDS011;7247;53.330;-1.180;2023-02-15T05:29:00;214.93;;;81.70;;
14326;SDS011;7247;53.330;-1.180;2023-02-15T05:31:26;224.67;;;83.27;;
14326;SDS011;7247;53.330;-1.180;2023-02-15T05:33:54;188.30;;;77.30;;
14326;SDS011;7247;53.330;-1.180;2023-02-15T05:36:20;184.47;;;76.87;;
14326;SDS011;7247;53.330;-1.180;2023-02-15T05:38:47;209.77;;;81.23;;
14326;SDS011;7247;53.330;-1.180;2023-02-15T05:41:13;185.57;;;78.43;;
14326;SDS011;7247;53.330;-1.180;2023-02-15T05:43:40;208.07;;;80.20;;
14326;SDS011;7247;53.330;-1.180;2023-02-15T05:46:06;186.60;;;76.23;;
14326;SDS011;7247;53.330;-1.180;2023-02-15T05:48:33;195.57;;;80.80;;
14326;SDS011;7247;53.330;-1.180;2023-02-15T05:51:02;193.17;;;78.57;;
14326;SDS011;7247;53.330;-1.180;2023-02-15T05:53:30;211.33;;;80.77;;
14326;SDS011;7247;53.330;-1.180;2023-02-15T05:55:57;177.90;;;74.47;;
14326;SDS011;7247;53.330;-1.180;2023-02-15T05:58:25;192.07;;;75.83;;
14326;SDS011;7247;53.330;-1.180;2023-02-15T06:00:51;202.17;;;80.70;;
14326;SDS011;7247;53.330;-1.180;2023-02-15T06:03:17;192.50;;;76.47;;
14326;SDS011;7247;53.330;-1.180;2023-02-15T06:05:44;192.63;;;82.07;;
14326;SDS011;7247;53.330;-1.180;2023-02-15T06:08:12;198.50;;;81.10;;
14326;SDS011;7247;53.330;-1.180;2023-02-15T06:10:38;198.50;;;79.47;;
14326;SDS011;7247;53.330;-1.180;2023-02-15T06:13:05;187.43;;;79.37;;
14326;SDS011;7247;53.330;-1.180;2023-02-15T06:15:32;197.10;;;82.03;;
14326;SDS011;7247;53.330;-1.180;2023-02-15T06:17:58;194.87;;;80.93;;
14326;SDS011;7247;53.330;-1.180;2023-02-15T06:20:25;185.40;;;79.00;;
14326;SDS011;7247;53.330;-1.180;2023-02-15T06:22:51;178.87;;;79.13;;
14326;SDS011;7247;53.330;-1.180;2023-02-15T06:25:19;193.37;;;80.60;;
14326;SDS011;7247;53.330;-1.180;2023-02-15T06:27:46;172.77;;;77.23;;
14326;SDS011;7247;53.330;-1.180;2023-02-15T06:30:12;173.93;;;77.37;;
14326;SDS011;7247;53.330;-1.180;2023-02-15T06:32:39;182.27;;;77.87;;
14326;SDS011;7247;53.330;-1.180;2023-02-15T06:35:07;179.50;;;78.83;;
14326;SDS011;7247;53.330;-1.180;2023-02-15T06:37:35;177.57;;;77.00;;
14326;SDS011;7247;53.330;-1.180;2023-02-15T06:40:01;173.27;;;75.20;;
14326;SDS011;7247;53.330;-1.180;2023-02-15T06:42:30;172.60;;;75.20;;
14326;SDS011;7247;53.330;-1.180;2023-02-15T06:44:56;166.50;;;72.47;;
14326;SDS011;7247;53.330;-1.180;2023-02-15T06:47:24;172.87;;;75.03;;
14326;SDS011;7247;53.330;-1.180;2023-02-15T06:49:50;174.10;;;74.10;;
14326;SDS011;7247;53.330;-1.180;2023-02-15T06:52:16;169.30;;;75.27;;
14326;SDS011;7247;53.330;-1.180;2023-02-15T06:54:43;170.40;;;76.23;;
14326;SDS011;7247;53.330;-1.180;2023-02-15T06:57:09;172.13;;;75.17;;
14326;SDS011;7247;53.330;-1.180;2023-02-15T06:59:37;167.17;;;74.80;;
14326;SDS011;7247;53.330;-1.180;2023-02-15T07:02:03;168.43;;;71.83;;
14326;SDS011;7247;53.330;-1.180;2023-02-15T07:04:30;169.90;;;72.47;;
14326;SDS011;7247;53.330;-1.180;2023-02-15T07:06:56;163.63;;;72.33;;
14326;SDS011;7247;53.330;-1.180;2023-02-15T07:09:23;184.80;;;77.00;;
14326;SDS011;7247;53.330;-1.180;2023-02-15T07:11:49;170.10;;;73.83;;
14326;SDS011;7247;53.330;-1.180;2023-02-15T07:14:33;177.90;;;76.27;;
14326;SDS011;7247;53.330;-1.180;2023-02-15T07:17:01;186.20;;;77.00;;
14326;SDS011;7247;53.330;-1.180;2023-02-15T07:19:27;181.07;;;80.93;;
14326;SDS011;7247;53.330;-1.180;2023-02-15T07:21:53;171.70;;;78.30;;
14326;SDS011;7247;53.330;-1.180;2023-02-15T07:24:20;181.03;;;77.97;;
14326;SDS011;7247;53.330;-1.180;2023-02-15T07:26:46;174.83;;;75.97;;
14326;SDS011;7247;53.330;-1.180;2023-02-15T07:29:13;174.27;;;78.47;;
14326;SDS011;7247;53.330;-1.180;2023-02-15T07:31:40;182.60;;;80.37;;
14326;SDS011;7247;53.330;-1.180;2023-02-15T07:34:09;185.77;;;81.80;;
14326;SDS011;7247;53.330;-1.180;2023-02-15T07:36:36;175.97;;;78.27;;
14326;SDS011;7247;53.330;-1.180;2023-02-15T07:39:02;196.83;;;81.10;;
14326;SDS011;7247;53.330;-1.180;2023-02-15T07:41:29;189.30;;;79.97;;
14326;SDS011;7247;53.330;-1.180;2023-02-15T07:43:55;188.37;;;82.97;;
14326;SDS011;7247;53.330;-1.180;2023-02-15T07:46:22;180.57;;;80.47;;
14326;SDS011;7247;53.330;-1.180;2023-02-15T07:48:48;177.97;;;78.20;;
14326;SDS011;7247;53.330;-1.180;2023-02-15T07:51:16;169.23;;;77.93;;
14326;SDS011;7247;53.330;-1.180;2023-02-15T07:53:42;173.90;;;78.70;;
14326;SDS011;7247;53.330;-1.180;2023-02-15T07:56:09;173.03;;;78.80;;
14326;SDS011;7247;53.330;-1.180;2023-02-15T07:58:36;169.37;;;77.03;;
14326;SDS011;7247;53.330;-1.180;2023-02-15T08:01:18;177.53;;;77.70;;
14326;SDS011;7247;53.330;-1.180;2023-02-15T08:03:44;167.80;;;76.40;;
14326;SDS011;7247;53.330;-1.180;2023-02-15T08:06:11;166.33;;;77.07;;
14326;SDS011;7247;53.330;-1.180;2023-02-15T08:08:39;169.07;;;75.30;;
14326;SDS011;7247;53.330;-1.180;2023-02-15T08:11:06;173.50;;;74.03;;
14326;SDS011;7247;53.330;-1.180;2023-02-15T08:13:51;166.47;;;74.10;;
14326;SDS011;7247;53.330;-1.180;2023-02-15T08:16:21;159.43;;;73.67;;
14326;SDS011;7247;53.330;-1.180;2023-02-15T08:18:47;152.73;;;74.27;;
14326;SDS011;7247;53.330;-1.180;2023-02-15T08:21:14;159.00;;;73.80;;
14326;SDS011;7247;53.330;-1.180;2023-02-15T08:23:42;149.77;;;73.13;;
14326;SDS011;7247;53.330;-1.180;2023-02-15T08:26:08;150.03;;;73.27;;
14326;SDS011;7247;53.330;-1.180;2023-02-15T08:28:34;144.90;;;71.80;;
14326;SDS011;7247;53.330;-1.180;2023-02-15T08:31:04;154.50;;;76.23;;
14326;SDS011;7247;53.330;-1.180;2023-02-15T08:33:31;156.73;;;74.80;;
14326;SDS011;7247;53.330;-1.180;2023-02-15T08:36:01;148.20;;;75.17;;
14326;SDS011;7247;53.330;-1.180;2023-02-15T08:38:27;156.00;;;75.67;;
14326;SDS011;7247;53.330;-1.180;2023-02-15T08:40:55;149.80;;;74.57;;
14326;SDS011;7247;53.330;-1.180;2023-02-15T08:43:22;149.47;;;72.43;;
14326;SDS011;7247;53.330;-1.180;2023-02-15T08:45:48;140.47;;;70.57;;
14326;SDS011;7247;53.330;-1.180;2023-02-15T08:48:14;142.73;;;71.30;;
14326;SDS011;7247;53.330;-1.180;2023-02-15T08:50:41;139.67;;;72.47;;
14326;SDS011;7247;53.330;-1.180;2023-02-15T08:53:07;139.00;;;70.03;;
14326;SDS011;7247;53.330;-1.180;2023-02-15T08:55:34;132.87;;;70.13;;
14326;SDS011;7247;53.330;-1.180;2023-02-15T08:58:01;128.07;;;69.20;;
14326;SDS011;7247;53.330;-1.180;2023-02-15T09:00:28;133.93;;;69.00;;
14326;SDS011;7247;53.330;-1.180;2023-02-15T09:02:54;132.73;;;71.63;;
14326;SDS011;7247;53.330;-1.180;2023-02-15T09:05:21;129.90;;;67.93;;
14326;SDS011;7247;53.330;-1.180;2023-02-15T09:07:47;128.30;;;68.60;;
14326;SDS011;7247;53.330;-1.180;2023-02-15T09:10:14;121.23;;;66.83;;
14326;SDS011;7247;53.330;-1.180;2023-02-15T09:12:40;120.83;;;65.10;;
14326;SDS011;7247;53.330;-1.180;2023-02-15T09:15:08;117.20;;;65.17;;
14326;SDS011;7247;53.330;-1.180;2023-02-15T09:17:34;109.80;;;63.50;;
14326;SDS011;7247;53.330;-1.180;2023-02-15T09:20:01;107.63;;;62.53;;
14326;SDS011;7247;53.330;-1.180;2023-02-15T09:22:27;98.20;;;60.00;;
14326;SDS011;7247;53.330;-1.180;2023-02-15T09:24:55;96.73;;;58.50;;
14326;SDS011;7247;53.330;-1.180;2023-02-15T09:27:21;94.13;;;57.40;;
14326;SDS011;7247;53.330;-1.180;2023-02-15T09:29:47;88.53;;;56.37;;
14326;SDS011;7247;53.330;-1.180;2023-02-15T09:32:15;84.00;;;53.47;;
14326;SDS011;7247;53.330;-1.180;2023-02-15T09:34:42;79.83;;;50.33;;
14326;SDS011;7247;53.330;-1.180;2023-02-15T09:37:09;78.90;;;50.03;;
14326;SDS011;7247;53.330;-1.180;2023-02-15T09:39:35;72.40;;;47.87;;
14326;SDS011;7247;53.330;-1.180;2023-02-15T09:47:47;57.37;;;41.40;;
14326;SDS011;7247;53.330;-1.180;2023-02-15T09:50:17;58.93;;;39.90;;
14326;SDS011;7247;53.330;-1.180;2023-02-15T09:52:51;58.80;;;39.97;;
14326;SDS011;7247;53.330;-1.180;2023-02-15T09:55:30;61.17;;;41.03;;
14326;SDS011;7247;53.330;-1.180;2023-02-15T09:58:03;56.70;;;39.43;;
14326;SDS011;7247;53.330;-1.180;2023-02-15T10:00:33;57.43;;;39.23;;
14326;SDS011;7247;53.330;-1.180;2023-02-15T10:03:11;55.27;;;38.40;;
14326;SDS011;7247;53.330;-1.180;2023-02-15T10:05:42;52.47;;;37.53;;
14326;SDS011;7247;53.330;-1.180;2023-02-15T10:08:19;54.77;;;37.60;;
14326;SDS011;7247;53.330;-1.180;2023-02-15T10:10:48;52.77;;;35.57;;
14326;SDS011;7247;53.330;-1.180;2023-02-15T10:13:22;51.40;;;36.40;;
14326;SDS011;7247;53.330;-1.180;2023-02-15T10:15:53;51.10;;;36.17;;
14326;SDS011;7247;53.330;-1.180;2023-02-15T10:18:36;49.73;;;35.40;;
14326;SDS011;7247;53.330;-1.180;2023-02-15T10:21:07;50.70;;;35.60;;
14326;SDS011;7247;53.330;-1.180;2023-02-15T10:23:40;50.80;;;34.97;;
14326;SDS011;7247;53.330;-1.180;2023-02-15T10:26:11;47.03;;;34.13;;
14326;SDS011;7247;53.330;-1.180;2023-02-15T10:28:42;46.27;;;33.80;;
14326;SDS011;7247;53.330;-1.180;2023-02-15T10:31:11;46.43;;;34.10;;
14326;SDS011;7247;53.330;-1.180;2023-02-15T10:33:41;44.97;;;33.07;;
14326;SDS011;7247;53.330;-1.180;2023-02-15T10:36:21;42.87;;;33.33;;
14326;SDS011;7247;53.330;-1.180;2023-02-15T10:38:52;45.57;;;32.83;;
14326;SDS011;7247;53.330;-1.180;2023-02-15T10:41:27;42.93;;;31.57;;
14326;SDS011;7247;53.330;-1.180;2023-02-15T10:44:07;42.43;;;32.33;;
14326;SDS011;7247;53.330;-1.180;2023-02-15T10:46:41;43.53;;;31.87;;
14326;SDS011;7247;53.330;-1.180;2023-02-15T10:52:01;41.43;;;31.30;;
14326;SDS011;7247;53.330;-1.180;2023-02-15T10:54:33;42.43;;;32.03;;
14326;SDS011;7247;53.330;-1.180;2023-02-15T10:57:03;41.13;;;31.57;;
14326;SDS011;7247;53.330;-1.180;2023-02-15T10:59:37;40.50;;;30.70;;
14326;SDS011;7247;53.330;-1.180;2023-02-15T11:02:10;35.70;;;29.77;;
14326;SDS011;7247;53.330;-1.180;2023-02-15T11:04:39;36.70;;;29.53;;
14326;SDS011;7247;53.330;-1.180;2023-02-15T11:07:12;40.53;;;31.40;;
14326;SDS011;7247;53.330;-1.180;2023-02-15T11:09:42;38.13;;;30.00;;
14326;SDS011;7247;53.330;-1.180;2023-02-15T11:12:10;38.07;;;29.77;;
14326;SDS011;7247;53.330;-1.180;2023-02-15T11:14:40;37.87;;;29.80;;
14326;SDS011;7247;53.330;-1.180;2023-02-15T11:17:09;39.70;;;29.87;;
14326;SDS011;7247;53.330;-1.180;2023-02-15T11:19:37;38.23;;;29.33;;
14326;SDS011;7247;53.330;-1.180;2023-02-15T11:22:05;38.83;;;30.57;;
14326;SDS011;7247;53.330;-1.180;2023-02-15T11:24:35;38.97;;;29.13;;
14326;SDS011;7247;53.330;-1.180;2023-02-15T11:27:04;39.30;;;29.77;;
14326;SDS011;7247;53.330;-1.180;2023-02-15T11:29:32;39.90;;;29.43;;
14326;SDS011;7247;53.330;-1.180;2023-02-15T11:32:01;37.10;;;29.27;;
14326;SDS011;7247;53.330;-1.180;2023-02-15T11:34:29;36.23;;;29.93;;
14326;SDS011;7247;53.330;-1.180;2023-02-15T11:36:58;34.90;;;28.73;;
14326;SDS011;7247;53.330;-1.180;2023-02-15T11:39:27;35.23;;;29.17;;
14326;SDS011;7247;53.330;-1.180;2023-02-15T11:41:59;34.90;;;29.37;;
14326;SDS011;7247;53.330;-1.180;2023-02-15T11:44:27;36.27;;;28.97;;
14326;SDS011;7247;53.330;-1.180;2023-02-15T11:46:56;35.57;;;28.93;;
14326;SDS011;7247;53.330;-1.180;2023-02-15T11:49:24;38.97;;;29.93;;
14326;SDS011;7247;53.330;-1.180;2023-02-15T11:51:52;39.43;;;27.77;;
14326;SDS011;7247;53.330;-1.180;2023-02-15T11:54:19;34.10;;;28.10;;
14326;SDS011;7247;53.330;-1.180;2023-02-15T11:56:47;35.13;;;28.70;;
14326;SDS011;7247;53.330;-1.180;2023-02-15T11:59:17;36.30;;;28.40;;
14326;SDS011;7247;53.330;-1.180;2023-02-15T12:01:45;34.63;;;27.43;;
14326;SDS011;7247;53.330;-1.180;2023-02-15T12:04:14;33.80;;;27.03;;
14326;SDS011;7247;53.330;-1.180;2023-02-15T12:06:44;34.27;;;26.47;;
14326;SDS011;7247;53.330;-1.180;2023-02-15T12:09:17;33.97;;;27.50;;
14326;SDS011;7247;53.330;-1.180;2023-02-15T12:11:46;34.63;;;26.87;;
14326;SDS011;7247;53.330;-1.180;2023-02-15T12:14:13;36.57;;;27.73;;
14326;SDS011;7247;53.330;-1.180;2023-02-15T12:16:43;35.33;;;27.07;;
14326;SDS011;7247;53.330;-1.180;2023-02-15T12:19:13;36.80;;;29.47;;
14326;SDS011;7247;53.330;-1.180;2023-02-15T12:21:44;36.43;;;28.93;;
14326;SDS011;7247;53.330;-1.180;2023-02-15T12:24:14;36.50;;;28.20;;
14326;SDS011;7247;53.330;-1.180;2023-02-15T12:26:43;33.27;;;27.07;;
14326;SDS011;7247;53.330;-1.180;2023-02-15T12:29:12;38.03;;;28.00;;
14326;SDS011;7247;53.330;-1.180;2023-02-15T12:31:43;36.70;;;27.33;;
14326;SDS011;7247;53.330;-1.180;2023-02-15T12:34:11;36.13;;;27.47;;
14326;SDS011;7247;53.330;-1.180;2023-02-15T12:36:40;38.13;;;29.17;;
14326;SDS011;7247;53.330;-1.180;2023-02-15T12:39:20;38.27;;;29.10;;
14326;SDS011;7247;53.330;-1.180;2023-02-15T12:41:56;48.97;;;31.70;;
14326;SDS011;7247;53.330;-1.180;2023-02-15T12:44:24;42.17;;;30.30;;
14326;SDS011;7247;53.330;-1.180;2023-02-15T12:46:59;43.57;;;30.83;;
14326;SDS011;7247;53.330;-1.180;2023-02-15T12:49:26;38.37;;;30.80;;
14326;SDS011;7247;53.330;-1.180;2023-02-15T12:51:53;54.27;;;34.50;;
14326;SDS011;7247;53.330;-1.180;2023-02-15T12:57:18;42.43;;;30.77;;
14326;SDS011;7247;53.330;-1.180;2023-02-15T12:59:50;40.47;;;29.33;;
14326;SDS011;7247;53.330;-1.180;2023-02-15T13:02:20;37.50;;;27.67;;
14326;SDS011;7247;53.330;-1.180;2023-02-15T13:04:48;37.10;;;27.17;;
14326;SDS011;7247;53.330;-1.180;2023-02-15T13:07:15;35.07;;;25.70;;
14326;SDS011;7247;53.330;-1.180;2023-02-15T13:09:41;36.67;;;27.07;;
14326;SDS011;7247;53.330;-1.180;2023-02-15T13:12:15;38.10;;;27.83;;
14326;SDS011;7247;53.330;-1.180;2023-02-15T13:14:43;38.87;;;27.77;;
14326;SDS011;7247;53.330;-1.180;2023-02-15T13:17:10;34.07;;;26.33;;
14326;SDS011;7247;53.330;-1.180;2023-02-15T13:19:40;39.23;;;26.23;;
14326;SDS011;7247;53.330;-1.180;2023-02-15T13:22:08;38.37;;;26.67;;
14326;SDS011;7247;53.330;-1.180;2023-02-15T13:24:37;39.27;;;27.47;;
14326;SDS011;7247;53.330;-1.180;2023-02-15T13:27:04;34.83;;;27.03;;
14326;SDS011;7247;53.330;-1.180;2023-02-15T13:29:33;36.10;;;26.63;;
14326;SDS011;7247;53.330;-1.180;2023-02-15T13:32:04;36.03;;;27.50;;
14326;SDS011;7247;53.330;-1.180;2023-02-15T13:34:32;36.10;;;26.77;;
14326;SDS011;7247;53.330;-1.180;2023-02-15T13:37:02;36.00;;;26.67;;
14326;SDS011;7247;53.330;-1.180;2023-02-15T13:39:33;33.67;;;26.23;;
14326;SDS011;7247;53.330;-1.180;2023-02-15T13:42:02;34.80;;;24.57;;
14326;SDS011;7247;53.330;-1.180;2023-02-15T13:44:41;33.87;;;26.07;;
14326;SDS011;7247;53.330;-1.180;2023-02-15T13:47:15;36.00;;;25.10;;
14326;SDS011;7247;53.330;-1.180;2023-02-15T13:49:47;32.17;;;25.80;;
14326;SDS011;7247;53.330;-1.180;2023-02-15T13:52:20;34.03;;;25.13;;
14326;SDS011;7247;53.330;-1.180;2023-02-15T13:54:53;31.07;;;22.37;;
14326;SDS011;7247;53.330;-1.180;2023-02-15T13:57:38;33.00;;;23.07;;
14326;SDS011;7247;53.330;-1.180;2023-02-15T14:00:13;30.37;;;23.20;;
14326;SDS011;7247;53.330;-1.180;2023-02-15T14:02:53;32.43;;;23.90;;
14326;SDS011;7247;53.330;-1.180;2023-02-15T14:05:35;31.70;;;22.37;;
14326;SDS011;7247;53.330;-1.180;2023-02-15T14:08:10;27.87;;;20.50;;
14326;SDS011;7247;53.330;-1.180;2023-02-15T14:16:09;32.30;;;20.90;;
14326;SDS011;7247;53.330;-1.180;2023-02-15T14:18:40;27.47;;;20.40;;
14326;SDS011;7247;53.330;-1.180;2023-02-15T14:21:09;29.60;;;20.20;;
14326;SDS011;7247;53.330;-1.180;2023-02-15T14:23:40;25.90;;;20.50;;
14326;SDS011;7247;53.330;-1.180;2023-02-15T14:26:09;28.17;;;20.30;;
14326;SDS011;7247;53.330;-1.180;2023-02-15T14:28:39;29.00;;;19.50;;
14326;SDS011;7247;53.330;-1.180;2023-02-15T14:31:09;31.17;;;20.87;;
14326;SDS011;7247;53.330;-1.180;2023-02-15T14:33:38;29.50;;;19.73;;
14326;SDS011;7247;53.330;-1.180;2023-02-15T14:36:05;27.07;;;20.50;;
14326;SDS011;7247;53.330;-1.180;2023-02-15T14:38:43;27.40;;;19.50;;
14326;SDS011;7247;53.330;-1.180;2023-02-15T14:41:12;28.70;;;18.93;;
14326;SDS011;7247;53.330;-1.180;2023-02-15T14:43:45;27.40;;;19.20;;
14326;SDS011;7247;53.330;-1.180;2023-02-15T14:46:16;27.90;;;19.73;;